Time;durP1;ratioP1;P1;durP2;ratioP2;P2;SDS_P1;SDS_P2;PMS_P1;PMS_P2;Temp;Humidity;BMP_temperature;BMP_pressure;BME280_temperature;BME280_humidity;BME280_pressure;Samples;Min_cycle;Max_cycle;Signal;HPM_P1;HPM_P2
2022/01/08 00:01:32;;;;;;;2.40;2.20;;;15.90;55.90;16.60;100151.00;;;;5047781;28;20174;-42
2022/01/08 00:03:58;;;;;;;3.00;2.10;;;15.80;56.00;16.60;100160.00;;;;5049597;28;20173;-41
2022/01/08 00:06:23;;;;;;;4.57;2.43;;;15.80;56.10;16.50;100159.00;;;;5056381;28;20178;-41
2022/01/08 00:08:49;;;;;;;3.77;2.10;;;15.80;56.40;16.50;100157.00;;;;5049582;28;20170;-40
2022/01/08 00:11:19;;;;;;;3.33;1.90;;;15.70;56.40;16.50;100157.00;;;;5049408;28;20647;-42
2022/01/08 00:13:45;;;;;;;2.93;2.20;;;15.70;56.30;16.50;100161.00;;;;5054527;28;20232;-41
2022/01/08 00:16:11;;;;;;;2.20;2.00;;;15.70;56.40;16.50;100163.00;;;;5049777;28;20178;-39
2022/01/08 00:18:36;;;;;;;2.13;1.90;;;15.70;56.40;16.50;100157.00;;;;5049557;28;20701;-41
2022/01/08 00:21:02;;;;;;;2.53;2.20;;;15.70;56.60;16.50;100156.00;;;;5048781;28;20186;-41
2022/01/08 00:23:28;;;;;;;2.20;2.00;;;15.70;56.30;16.50;100163.00;;;;5049598;28;20174;-42
2022/01/08 00:25:53;;;;;;;2.17;2.00;;;15.70;56.40;16.50;100164.00;;;;5049774;28;20597;-41
2022/01/08 00:28:19;;;;;;;3.20;2.17;;;15.60;56.50;16.50;100169.00;;;;5052032;28;20400;-41
2022/01/08 00:30:47;;;;;;;2.90;2.00;;;15.60;56.60;16.50;100163.00;;;;5052152;28;20162;-41
2022/01/08 00:33:13;;;;;;;3.00;2.10;;;15.60;56.40;16.50;100160.00;;;;5051467;28;20626;-41
2022/01/08 00:35:38;;;;;;;2.13;1.93;;;15.60;56.40;16.50;100156.00;;;;5048244;28;20178;-40
2022/01/08 00:38:04;;;;;;;1.80;1.70;;;15.60;56.60;16.50;100164.00;;;;5049303;28;20256;-41
2022/01/08 00:40:30;;;;;;;2.17;1.97;;;15.60;56.40;16.50;100162.00;;;;5050851;28;20181;-43
2022/01/08 00:42:55;;;;;;;2.20;2.00;;;15.50;56.50;16.50;100160.00;;;;5048222;28;20178;-41
2022/01/08 00:45:21;;;;;;;2.30;2.10;;;15.50;56.60;16.40;100062.00;;;;5048331;28;20285;-42
2022/01/08 00:47:47;;;;;;;2.00;1.90;;;15.50;56.80;16.40;100170.00;;;;5047684;28;20265;-41
2022/01/08 00:50:12;;;;;;;2.10;1.90;;;15.40;56.60;16.40;100168.00;;;;5048777;28;20247;-48
2022/01/08 00:52:41;;;;;;;2.13;1.93;;;15.40;56.80;16.40;100176.00;;;;5048122;28;20265;-40
2022/01/08 00:55:08;;;;;;;2.07;1.87;;;15.40;56.90;16.40;100167.00;;;;5047925;28;20733;-40
2022/01/08 00:57:34;;;;;;;2.00;1.90;;;15.30;56.70;16.40;100167.00;;;;5047321;28;20198;-40
2022/01/08 00:59:59;;;;;;;1.93;1.80;;;15.30;56.70;16.40;100168.00;;;;5047403;28;20185;-40
2022/01/08 01:02:25;;;;;;;2.43;1.90;;;15.30;56.90;16.30;100174.00;;;;5046968;28;20178;-41
2022/01/08 01:04:51;;;;;;;2.20;2.00;;;15.20;57.30;16.30;100184.00;;;;5047471;28;20733;-42
2022/01/08 01:07:17;;;;;;;2.07;1.80;;;15.20;57.00;16.30;100178.00;;;;5047423;28;20549;-41
2022/01/08 01:09:42;;;;;;;2.40;2.03;;;15.20;56.80;16.30;100168.00;;;;5047049;28;20170;-40
2022/01/08 01:12:08;;;;;;;2.00;1.80;;;15.20;57.00;16.20;100170.00;;;;5052501;28;20222;-41
2022/01/08 01:14:34;;;;;;;2.23;1.90;;;15.20;57.00;16.20;100084.00;;;;5047328;28;20553;-40
2022/01/08 01:16:59;;;;;;;2.20;2.00;;;15.20;57.00;16.20;100175.00;;;;5047062;28;20604;-41
2022/01/08 01:19:25;;;;;;;3.30;1.90;;;15.20;56.90;16.20;100168.00;;;;5047415;28;20266;-41
2022/01/08 01:21:53;;;;;;;2.10;1.90;;;15.20;57.00;16.20;100174.00;;;;5047215;28;20174;-41
2022/01/08 01:24:22;;;;;;;2.10;1.83;;;15.10;56.80;16.20;100183.00;;;;5047311;28;20692;-41
2022/01/08 01:29:41;;;;;;;1.90;1.80;;;15.10;57.30;16.10;100194.00;;;;5047411;28;20163;-42
2022/01/08 01:43:18;;;;;;;1.93;1.83;;;15.00;57.10;16.00;100194.00;;;;5046771;28;20212;-41
2022/01/08 01:48:28;;;;;;;1.90;1.80;;;15.00;57.50;16.00;100200.00;;;;5046523;28;20694;-41
2022/01/08 01:50:54;;;;;;;2.00;1.80;;;15.00;57.30;16.00;100201.00;;;;5046618;28;20179;-41
2022/01/08 01:53:20;;;;;;;2.00;1.80;;;15.00;57.10;16.00;100207.00;;;;5046269;28;20258;-40
2022/01/08 01:55:48;;;;;;;2.17;1.97;;;14.90;57.40;16.00;100199.00;;;;5046663;28;20546;-41
2022/01/08 01:58:14;;;;;;;1.90;1.80;;;14.90;58.10;15.90;100191.00;;;;5046360;28;20204;-41
2022/01/08 02:00:39;;;;;;;1.90;1.80;;;14.90;57.50;15.90;100203.00;;;;5046163;28;20182;-41
2022/01/08 02:03:05;;;;;;;1.97;1.80;;;14.90;57.60;15.90;100193.00;;;;5046028;28;20182;-39
2022/01/08 02:05:31;;;;;;;2.00;1.90;;;14.90;57.50;15.90;100191.00;;;;5048125;28;20217;-42
2022/01/08 02:07:56;;;;;;;1.80;1.70;;;14.90;57.50;15.90;100180.00;;;;5051126;28;20186;-41
2022/01/08 02:10:22;;;;;;;2.10;1.90;;;14.80;58.00;15.90;100183.00;;;;5028969;28;20174;-41
2022/01/08 02:12:48;;;;;;;1.80;1.70;;;14.80;58.00;15.90;100198.00;;;;5048178;28;20176;-41
2022/01/08 02:15:14;;;;;;;2.13;1.90;;;14.80;57.70;15.80;100198.00;;;;5047185;28;20185;-41
2022/01/08 02:17:40;;;;;;;2.03;1.83;;;14.80;57.60;15.80;100200.00;;;;5048361;28;20194;-42
2022/01/08 02:20:07;;;;;;;2.47;1.80;;;14.80;57.60;15.80;100208.00;;;;5045994;28;20338;-42
2022/01/08 02:22:34;;;;;;;1.77;1.67;;;14.80;57.50;15.80;100198.00;;;;5046125;28;20179;-43
2022/01/08 02:25:00;;;;;;;2.20;1.90;;;14.80;57.80;15.80;100196.00;;;;5045257;28;20214;-41
2022/01/08 02:27:25;;;;;;;1.77;1.67;;;14.80;57.80;15.80;100200.00;;;;5046678;28;20218;-41
2022/01/08 02:29:52;;;;;;;1.80;1.70;;;14.80;57.60;15.80;100196.00;;;;5046352;28;20186;-40
2022/01/08 02:32:24;;;;;;;1.80;1.70;;;14.70;57.40;15.80;100205.00;;;;5044903;28;20163;-43
2022/01/08 02:34:50;;;;;;;2.00;1.90;;;14.70;57.70;15.80;100171.00;;;;5046869;28;20174;-40
2022/01/08 02:37:18;;;;;;;1.97;1.87;;;14.70;57.80;15.70;100202.00;;;;5046379;28;20761;-41
2022/01/08 02:39:44;;;;;;;1.80;1.70;;;14.70;57.90;15.70;100194.00;;;;5046110;28;20257;-47
2022/01/08 02:42:13;;;;;;;1.80;1.70;;;14.70;58.00;15.70;100191.00;;;;5045941;28;20624;-41
2022/01/08 02:44:40;;;;;;;2.00;1.90;;;14.70;57.70;15.70;100190.00;;;;5045468;28;20201;-41
2022/01/08 02:47:06;;;;;;;1.50;1.40;;;14.70;57.80;15.70;100191.00;;;;5044141;28;20417;-41
2022/01/08 02:49:33;;;;;;;1.80;1.70;;;14.60;57.80;15.70;100192.00;;;;5046064;28;20296;-41
2022/01/08 02:52:00;;;;;;;1.80;1.70;;;14.60;57.80;15.60;100196.00;;;;5049262;28;20332;-41
2022/01/08 02:54:25;;;;;;;1.60;1.50;;;14.60;57.90;15.70;100199.00;;;;5050951;28;20182;-42
2022/01/08 02:56:51;;;;;;;1.93;1.83;;;14.60;57.50;15.70;100192.00;;;;5045384;28;20711;-41
2022/01/08 02:59:17;;;;;;;2.00;1.90;;;14.60;57.60;15.70;100192.00;;;;5045435;28;20170;-41
2022/01/08 03:01:43;;;;;;;1.80;1.70;;;14.60;57.70;15.60;100188.00;;;;5045550;28;20217;-41
2022/01/08 03:04:09;;;;;;;1.63;1.53;;;14.60;57.90;15.60;100198.00;;;;5045615;28;20181;-42
2022/01/08 03:06:34;;;;;;;1.80;1.70;;;14.50;57.60;15.60;100200.00;;;;5045166;28;20225;-41
2022/01/08 03:09:00;;;;;;;2.00;1.80;;;14.50;57.90;15.60;100203.00;;;;5045527;28;20221;-41
2022/01/08 03:11:26;;;;;;;1.90;1.80;;;14.50;58.00;15.60;100213.00;;;;5045829;28;20585;-40
2022/01/08 03:13:52;;;;;;;1.70;1.60;;;14.50;58.00;15.60;100212.00;;;;5045380;28;20186;-41
2022/01/08 03:16:17;;;;;;;1.87;1.77;;;14.50;58.00;15.50;100209.00;;;;5045355;28;20382;-42
2022/01/08 03:18:44;;;;;;;2.03;1.90;;;14.50;57.90;15.60;100201.00;;;;5045265;28;20201;-40
2022/01/08 03:21:17;;;;;;;1.70;1.60;;;14.40;58.00;15.50;100212.00;;;;5046584;28;20170;-40
2022/01/08 03:23:49;;;;;;;1.80;1.70;;;14.40;58.30;15.50;100208.00;;;;5049889;28;20189;-41
2022/01/08 03:26:16;;;;;;;1.83;1.73;;;14.40;58.20;15.50;100209.00;;;;5050164;28;20197;-41
2022/01/08 03:28:42;;;;;;;1.80;1.70;;;14.40;58.20;15.50;100213.00;;;;5049369;28;20686;-40
2022/01/08 03:31:08;;;;;;;1.70;1.60;;;14.40;58.10;15.50;100222.00;;;;5049310;28;20193;-40
2022/01/08 03:33:33;;;;;;;2.17;1.90;;;14.40;58.50;15.50;100227.00;;;;5049447;28;20170;-41
2022/01/08 03:35:59;;;;;;;2.17;1.63;;;14.30;58.20;15.50;100224.00;;;;5049451;28;20170;-41
2022/01/08 03:38:25;;;;;;;1.83;1.73;;;14.30;58.20;15.50;100230.00;;;;5049134;28;20255;-40
2022/01/08 03:40:51;;;;;;;1.80;1.70;;;14.30;58.10;15.40;100224.00;;;;5049380;28;20186;-41
2022/01/08 03:43:16;;;;;;;2.00;1.90;;;14.30;58.60;15.40;100244.00;;;;5049454;28;20175;-41
2022/01/08 03:45:42;;;;;;;1.83;1.73;;;14.30;58.40;15.40;100258.00;;;;5049136;28;20202;-42
2022/01/08 03:50:52;;;;;;;2.00;1.80;;;14.20;58.20;15.40;100259.00;;;;5049124;28;20161;-40
2022/01/08 03:53:18;;;;;;;1.90;1.80;;;14.20;58.30;15.40;100266.00;;;;5049311;28;20265;-40
2022/01/08 03:55:43;;;;;;;1.80;1.70;;;14.20;58.90;15.40;100265.00;;;;5048872;28;20189;-40
2022/01/08 03:58:09;;;;;;;1.90;1.70;;;14.20;58.30;15.40;100274.00;;;;5049508;28;20190;-41
2022/01/08 04:00:35;;;;;;;1.80;1.70;;;14.20;58.90;15.40;100257.00;;;;5056296;28;20175;-42
2022/01/08 04:03:01;;;;;;;1.87;1.77;;;14.20;58.10;15.30;100261.00;;;;5050869;28;20186;-40
2022/01/08 04:05:26;;;;;;;1.70;1.60;;;14.20;58.30;15.30;100259.00;;;;5050227;28;20202;-41
2022/01/08 04:07:52;;;;;;;1.90;1.80;;;14.20;58.10;15.30;100267.00;;;;5053702;28;20190;-41
2022/01/08 04:10:18;;;;;;;2.20;2.00;;;14.20;58.30;15.30;100265.00;;;;5051252;28;20181;-40
2022/01/08 04:12:48;;;;;;;1.73;1.60;;;14.10;58.20;15.30;100269.00;;;;5049752;28;20550;-41
2022/01/08 04:17:52;;;;;;;3.83;2.10;;;14.10;58.80;15.30;100281.00;;;;5047665;28;20686;-41
2022/01/08 04:20:18;;;;;;;5.10;2.20;;;14.10;58.70;14.90;100275.00;;;;5047289;28;20269;-40
2022/01/08 04:22:46;;;;;;;9.87;2.17;;;14.10;58.90;15.20;100281.00;;;;5047285;28;20167;-41
2022/01/08 04:25:12;;;;;;;2.80;1.80;;;14.20;59.30;15.30;100281.00;;;;5046971;28;20208;-41
2022/01/08 04:27:38;;;;;;;2.97;1.97;;;14.30;58.40;15.30;100283.00;;;;5046984;28;20563;-41
2022/01/08 04:30:05;;;;;;;5.63;2.40;;;14.50;58.50;15.40;100280.00;;;;5047195;28;20177;-42
2022/01/08 04:32:30;;;;;;;7.00;2.03;;;14.80;58.50;15.50;100289.00;;;;5046608;28;20663;-41
2022/01/08 04:34:56;;;;;;;2.53;1.73;;;15.00;58.10;15.60;100303.00;;;;5047072;28;20253;-41
2022/01/08 04:37:22;;;;;;;4.23;2.00;;;15.20;57.70;15.70;100287.00;;;;5046668;28;20197;-41
2022/01/08 04:39:47;;;;;;;2.13;1.90;;;15.40;57.40;15.80;100296.00;;;;5046853;28;20363;-40
2022/01/08 04:42:13;;;;;;;3.47;1.80;;;15.50;57.30;15.90;100299.00;;;;5046865;28;20170;-41
2022/01/08 04:44:39;;;;;;;5.53;2.03;;;15.60;57.10;16.00;100306.00;;;;5046774;28;20201;-41
2022/01/08 04:47:04;;;;;;;2.60;1.87;;;15.70;57.00;16.00;100310.00;;;;5046433;28;20563;-41
2022/01/08 04:49:30;;;;;;;1.93;1.70;;;15.70;57.00;16.10;100305.00;;;;5046799;28;20229;-40
2022/01/08 04:51:56;;;;;;;3.73;1.90;;;15.70;57.10;16.10;100303.00;;;;5046626;28;20174;-41
2022/01/08 04:54:22;;;;;;;3.13;2.00;;;15.70;57.10;16.20;100300.00;;;;5048581;28;20166;-41
2022/01/08 04:56:48;;;;;;;2.03;1.90;;;15.70;57.00;16.20;100317.00;;;;5054367;28;20336;-40
2022/01/08 04:59:14;;;;;;;2.13;1.87;;;15.70;57.10;16.20;100310.00;;;;5051652;28;20170;-41
2022/01/08 05:01:40;;;;;;;1.73;1.63;;;15.70;57.10;16.20;100314.00;;;;5049911;28;20666;-41
2022/01/08 05:04:06;;;;;;;2.37;1.90;;;15.70;57.20;16.30;100310.00;;;;5046867;28;20170;-41
2022/01/08 05:06:31;;;;;;;3.10;2.17;;;15.70;57.20;16.30;100306.00;;;;5050661;28;20194;-41
2022/01/08 05:08:57;;;;;;;1.93;1.83;;;15.70;57.30;16.30;100316.00;;;;5050888;28;20209;-40
2022/01/08 05:11:23;;;;;;;2.37;1.83;;;15.60;57.30;16.30;100306.00;;;;5048600;28;20175;-41
2022/01/08 05:13:50;;;;;;;2.20;1.90;;;15.70;57.50;16.30;100308.00;;;;5008938;28;1115041;-41
2022/01/08 05:16:16;;;;;;;3.53;2.00;;;15.60;57.40;16.30;100319.00;;;;5037820;28;20577;-41
2022/01/08 05:18:43;;;;;;;2.33;1.80;;;15.60;57.40;16.30;100323.00;;;;5031090;28;20211;-40
2022/01/08 05:21:19;;;;;;;2.80;1.73;;;15.60;57.40;16.30;100333.00;;;;5027731;28;20588;-41
2022/01/08 05:23:45;;;;;;;3.17;2.00;;;15.60;57.50;16.30;100319.00;;;;5027543;28;20171;-40
2022/01/08 05:26:10;;;;;;;1.70;1.60;;;15.60;57.50;16.30;100314.00;;;;5027864;28;20194;-40
2022/01/08 05:28:36;;;;;;;2.40;1.80;;;15.50;57.60;16.30;100320.00;;;;5027726;28;20822;-41
2022/01/08 05:31:02;;;;;;;1.80;1.70;;;15.50;57.60;16.30;100324.00;;;;5028586;28;20205;-40
2022/01/08 05:33:28;;;;;;;2.03;1.90;;;15.50;57.70;16.30;100319.00;;;;5029578;28;20224;-42
2022/01/08 05:35:53;;;;;;;4.07;2.10;;;15.50;57.70;16.20;100323.00;;;;5028586;28;20522;-40
2022/01/08 05:38:19;;;;;;;4.43;1.90;;;15.50;58.00;16.20;100319.00;;;;5027887;28;20221;-41
2022/01/08 05:40:45;;;;;;;3.10;2.20;;;15.40;57.90;16.20;100334.00;;;;5027756;28;20167;-40
2022/01/08 05:43:11;;;;;;;3.13;1.80;;;15.40;57.90;16.20;100338.00;;;;5027964;28;20572;-40
2022/01/08 05:45:36;;;;;;;7.23;2.13;;;15.40;58.00;16.20;100318.00;;;;5026294;28;20206;-40
2022/01/08 05:48:02;;;;;;;3.20;2.00;;;15.40;58.00;16.20;100311.00;;;;5026967;28;20245;-41
2022/01/08 05:50:28;;;;;;;3.93;1.97;;;15.30;58.00;16.20;100322.00;;;;5027054;28;20217;-41
2022/01/08 05:52:53;;;;;;;5.37;2.13;;;15.30;58.00;16.20;100334.00;;;;5031796;28;20179;-40
2022/01/08 05:55:19;;;;;;;4.40;1.93;;;15.30;58.00;16.10;100337.00;;;;5031939;28;20229;-41
2022/01/08 05:57:45;;;;;;;4.23;2.20;;;15.30;58.10;16.10;100324.00;;;;5029218;28;20667;-40
2022/01/08 06:00:11;;;;;;;3.70;2.20;;;15.20;58.00;16.10;100341.00;;;;5028071;28;20186;-41
2022/01/08 06:02:37;;;;;;;2.87;2.00;;;15.20;58.10;16.10;100345.00;;;;5028907;28;20187;-41
2022/01/08 06:05:04;;;;;;;2.00;1.80;;;15.20;58.10;16.10;100338.00;;;;5027843;28;20199;-40
2022/01/08 06:07:30;;;;;;;3.63;1.90;;;15.10;58.10;16.10;100346.00;;;;5027857;28;20302;-41
2022/01/08 06:09:56;;;;;;;2.97;1.90;;;15.10;58.20;16.00;100349.00;;;;5026897;28;20394;-40
2022/01/08 06:12:22;;;;;;;4.67;2.20;;;15.10;58.10;16.00;100345.00;;;;5026252;28;20541;-40
2022/01/08 06:14:47;;;;;;;4.40;2.23;;;15.10;58.20;16.00;100348.00;;;;5026632;28;20189;-40
2022/01/08 06:17:13;;;;;;;3.77;2.00;;;15.00;58.10;16.00;100338.00;;;;5026911;28;20195;-40
2022/01/08 06:19:39;;;;;;;3.47;2.00;;;15.00;58.20;16.00;100354.00;;;;5026926;28;20548;-41
2022/01/08 06:22:05;;;;;;;3.80;2.00;;;15.00;58.30;15.90;100364.00;;;;5026745;28;20194;-41
2022/01/08 06:24:30;;;;;;;3.20;2.00;;;14.90;58.20;15.90;100366.00;;;;5026492;28;20174;-41
2022/01/08 06:26:56;;;;;;;2.93;2.27;;;14.90;58.20;15.90;100366.00;;;;5024982;28;20244;-40
2022/01/08 06:29:22;;;;;;;2.23;1.80;;;14.90;58.20;15.80;100382.00;;;;5025559;28;20541;-42
2022/01/08 06:31:48;;;;;;;3.93;2.33;;;14.90;58.20;15.80;100386.00;;;;5025172;28;20640;-40
2022/01/08 06:34:13;;;;;;;2.17;1.97;;;14.90;58.30;15.80;100378.00;;;;5025526;28;20159;-40
2022/01/08 06:36:39;;;;;;;3.67;2.03;;;14.90;58.20;15.80;100385.00;;;;5026525;28;20179;-41
2022/01/08 06:39:05;;;;;;;2.60;2.10;;;14.80;58.20;15.80;100387.00;;;;5025720;28;20214;-41
2022/01/08 06:41:31;;;;;;;2.37;2.10;;;14.80;58.30;15.70;100391.00;;;;5024623;28;20213;-40
2022/01/08 06:43:57;;;;;;;3.57;2.10;;;14.80;58.20;15.70;100400.00;;;;5025220;28;20182;-41
2022/01/08 06:46:23;;;;;;;2.10;1.90;;;14.80;58.40;15.70;100410.00;;;;5025485;28;20202;-41
2022/01/08 06:48:49;;;;;;;3.40;2.20;;;14.80;58.30;15.70;100408.00;;;;5026084;28;20205;-41
2022/01/08 06:51:15;;;;;;;4.20;2.20;;;14.70;58.20;15.70;100411.00;;;;5025467;28;20171;-41
2022/01/08 06:53:41;;;;;;;2.40;2.00;;;14.80;58.50;15.70;100416.00;;;;5026126;28;20171;-41
2022/01/08 06:56:06;;;;;;;2.20;2.00;;;14.70;58.30;15.60;100419.00;;;;5026167;28;20219;-42
2022/01/08 06:58:33;;;;;;;2.47;2.10;;;14.70;58.40;15.60;100410.00;;;;5026094;28;20536;-41
2022/01/08 07:00:59;;;;;;;2.00;1.80;;;14.70;58.30;15.60;100414.00;;;;5024270;28;20179;-41
2022/01/08 07:03:24;;;;;;;2.10;1.90;;;14.60;58.30;15.60;100411.00;;;;5025865;28;20686;-41
2022/01/08 07:05:50;;;;;;;2.20;2.00;;;14.60;58.50;15.60;100410.00;;;;5026605;28;20206;-41
2022/01/08 07:08:16;;;;;;;2.17;2.00;;;14.60;58.30;15.50;100417.00;;;;5031745;28;20214;-42
2022/01/08 07:10:41;;;;;;;2.13;1.80;;;14.60;58.30;15.50;100434.00;;;;5029605;28;20565;-41
2022/01/08 07:13:07;;;;;;;3.07;2.23;;;14.60;58.30;15.50;100428.00;;;;5025810;28;20175;-42
2022/01/08 07:15:33;;;;;;;2.20;2.00;;;14.60;58.40;15.50;100419.00;;;;5025526;28;20194;-41
2022/01/08 07:17:59;;;;;;;2.20;2.00;;;14.50;58.50;15.50;100430.00;;;;5025886;28;20233;-40
2022/01/08 07:20:24;;;;;;;1.90;1.80;;;14.50;58.50;15.50;100426.00;;;;5025932;28;20182;-40
2022/01/08 07:22:50;;;;;;;2.30;2.10;;;14.50;58.50;15.40;100422.00;;;;5026847;28;20678;-42
2022/01/08 07:25:16;;;;;;;1.90;1.80;;;14.40;58.50;15.40;100412.00;;;;5027173;28;20211;-41
2022/01/08 07:27:42;;;;;;;2.10;1.90;;;14.40;58.50;15.40;100414.00;;;;5029063;28;20191;-40
2022/01/08 07:30:08;;;;;;;2.23;1.80;;;14.40;58.50;15.40;100420.00;;;;5034876;28;20190;-41
2022/01/08 07:32:44;;;;;;;2.20;2.00;;;14.40;58.50;15.40;100415.00;;;;5027506;28;20167;-41
2022/01/08 07:35:11;;;;;;;2.33;2.10;;;14.30;58.40;15.30;100418.00;;;;5028221;28;20815;-40
2022/01/08 07:37:37;;;;;;;3.10;2.00;;;14.30;58.60;15.30;100418.00;;;;5027797;28;20244;-41
2022/01/08 07:40:04;;;;;;;2.80;2.00;;;14.30;58.40;15.30;100410.00;;;;5027866;28;20186;-41
2022/01/08 07:42:30;;;;;;;2.70;2.00;;;14.30;58.80;15.30;100407.00;;;;5028595;28;20190;-40
2022/01/08 07:44:55;;;;;;;2.00;1.80;;;14.30;58.60;15.30;100423.00;;;;5027761;28;20842;-42
2022/01/08 07:47:21;;;;;;;2.00;1.90;;;14.30;58.70;15.20;100438.00;;;;5035309;28;20199;-42
2022/01/08 07:49:47;;;;;;;2.10;1.90;;;14.20;58.60;15.20;100429.00;;;;5031948;28;20207;-42
2022/01/08 07:52:12;;;;;;;2.20;2.00;;;14.20;58.60;15.20;100432.00;;;;5029222;28;20171;-42
2022/01/08 07:54:38;;;;;;;2.30;2.00;;;14.20;58.50;15.20;100449.00;;;;5029910;28;20171;-40
2022/01/08 07:57:04;;;;;;;2.27;2.07;;;14.20;58.70;15.20;100442.00;;;;5029139;28;20252;-42
2022/01/08 07:59:30;;;;;;;1.97;1.80;;;14.20;58.70;15.20;100434.00;;;;5029219;28;20211;-40
2022/01/08 08:01:55;;;;;;;2.70;2.10;;;14.20;58.80;15.20;100446.00;;;;5027966;28;20544;-41
2022/01/08 08:04:21;;;;;;;2.07;1.90;;;14.10;58.80;15.20;100452.00;;;;5027393;28;20171;-41
2022/01/08 08:06:47;;;;;;;2.40;2.20;;;14.10;58.80;15.10;100452.00;;;;5028171;28;20194;-40
2022/01/08 08:09:13;;;;;;;2.37;2.00;;;14.10;58.60;15.10;100439.00;;;;5031788;28;20178;-41
2022/01/08 08:11:39;;;;;;;2.40;2.07;;;14.10;58.70;15.10;100444.00;;;;5031744;28;20195;-40
2022/01/08 08:14:05;;;;;;;2.10;1.90;;;14.10;58.90;15.10;100449.00;;;;5041188;28;20186;-41
2022/01/08 08:16:31;;;;;;;2.37;2.17;;;14.10;59.00;15.10;100435.00;;;;5042619;28;20179;-41
2022/01/08 08:18:56;;;;;;;2.43;2.03;;;14.10;58.90;15.10;100416.00;;;;5030339;28;20182;-40
2022/01/08 08:21:22;;;;;;;2.27;2.00;;;14.00;58.70;15.00;100444.00;;;;5030900;28;20175;-40
2022/01/08 08:23:48;;;;;;;1.93;1.83;;;14.00;58.70;15.00;100429.00;;;;5031095;28;20174;-40
2022/01/08 08:26:13;;;;;;;2.23;1.90;;;14.00;58.80;15.00;100435.00;;;;5031333;28;20199;-41
2022/01/08 08:28:39;;;;;;;2.30;2.10;;;14.00;58.80;15.00;100423.00;;;;5030716;28;20197;-41
2022/01/08 08:31:05;;;;;;;1.93;1.83;;;13.90;59.00;15.00;100432.00;;;;5031297;28;20661;-43
2022/01/08 08:33:31;;;;;;;2.20;2.00;;;14.00;58.90;15.00;100425.00;;;;5031059;28;20255;-41
2022/01/08 08:35:56;;;;;;;2.30;2.10;;;14.00;59.00;15.00;100430.00;;;;5031033;28;20258;-41
2022/01/08 08:38:22;;;;;;;2.40;2.20;;;13.90;58.90;15.00;100426.00;;;;5032673;28;20198;-41
2022/01/08 08:40:51;;;;;;;8.83;2.37;;;14.00;59.30;15.00;100421.00;;;;5046014;28;20265;-41
2022/01/08 08:43:19;;;;;;;4.60;2.00;;;14.00;59.40;15.00;100424.00;;;;5037161;28;20198;-41
2022/01/08 08:45:45;;;;;;;4.63;2.23;;;14.10;59.00;15.00;100425.00;;;;5031482;28;20206;-40
2022/01/08 08:48:10;;;;;;;6.83;2.40;;;14.30;58.90;15.10;100422.00;;;;5031119;28;20187;-41
2022/01/08 08:50:36;;;;;;;3.20;2.10;;;14.50;58.60;15.20;100424.00;;;;5031159;28;20164;-41
2022/01/08 08:53:02;;;;;;;5.50;1.90;;;14.70;58.30;15.30;100413.00;;;;5030765;28;20225;-41
2022/01/08 08:55:28;;;;;;;4.70;2.03;;;15.00;57.90;15.20;100418.00;;;;5035571;28;20876;-41
2022/01/08 08:57:53;;;;;;;4.13;2.20;;;15.30;57.70;15.60;100409.00;;;;5049486;28;20190;-41
2022/01/08 09:00:19;;;;;;;2.30;2.10;;;15.60;57.30;15.80;100415.00;;;;5050413;28;20251;-40
2022/01/08 09:02:45;;;;;;;3.83;2.20;;;15.90;56.90;16.00;100421.00;;;;5050311;28;20209;-41
2022/01/08 09:05:11;;;;;;;2.03;1.90;;;16.10;56.50;16.10;100412.00;;;;5049327;28;20229;-40
2022/01/08 09:07:37;;;;;;;2.53;1.87;;;16.30;56.20;16.30;100408.00;;;;5050528;28;20198;-40
2022/01/08 09:10:04;;;;;;;3.20;2.10;;;16.50;56.00;16.40;100416.00;;;;5050465;28;20174;-41
2022/01/08 09:12:30;;;;;;;3.07;2.00;;;16.60;56.00;16.50;100408.00;;;;5049281;28;20575;-40
2022/01/08 09:14:55;;;;;;;2.57;2.10;;;16.70;56.00;16.60;100406.00;;;;5050340;28;20678;-41
2022/01/08 09:17:21;;;;;;;2.30;1.90;;;16.80;56.00;16.70;100408.00;;;;5050290;28;20198;-40
2022/01/08 09:19:47;;;;;;;2.37;1.90;;;16.90;56.10;16.80;100413.00;;;;5049185;28;20178;-40
2022/01/08 09:22:13;;;;;;;2.90;2.00;;;16.90;55.90;16.90;100401.00;;;;5051451;28;20193;-42
2022/01/08 09:24:38;;;;;;;2.27;1.90;;;16.90;56.00;17.00;100402.00;;;;5056231;28;20189;-41
2022/01/08 09:27:04;;;;;;;2.53;1.90;;;17.00;55.90;17.10;100406.00;;;;5053919;28;20198;-41
2022/01/08 09:29:30;;;;;;;2.80;2.00;;;17.00;55.80;17.10;100390.00;;;;5055255;28;20171;-41
2022/01/08 09:31:56;;;;;;;2.20;2.00;;;17.20;55.80;17.20;100407.00;;;;5052887;28;20167;-41
2022/01/08 09:34:22;;;;;;;2.27;1.90;;;17.10;55.80;17.30;100394.00;;;;5053300;28;20299;-41
2022/01/08 09:36:48;;;;;;;2.10;1.90;;;17.10;55.80;17.30;100408.00;;;;5056042;28;20194;-40
2022/01/08 09:39:13;;;;;;;2.57;1.93;;;17.20;55.90;17.40;100346.00;;;;5053656;28;20194;-41
2022/01/08 09:41:39;;;;;;;1.83;1.70;;;17.20;55.90;17.40;100396.00;;;;5061258;28;20238;-42
2022/01/08 09:44:05;;;;;;;3.03;2.00;;;17.10;56.10;17.40;100396.00;;;;5052896;28;20186;-41
2022/01/08 09:46:31;;;;;;;2.60;2.10;;;17.10;56.10;17.50;100390.00;;;;5053766;28;20220;-40
2022/01/08 09:48:57;;;;;;;2.00;1.80;;;17.20;56.10;17.50;100398.00;;;;5055790;28;20174;-41
2022/01/08 09:51:22;;;;;;;2.83;2.03;;;17.10;56.20;17.50;100399.00;;;;5050794;28;20178;-41
2022/01/08 09:53:48;;;;;;;4.00;2.33;;;17.20;56.60;17.50;100385.00;;;;5050856;28;20236;-40
2022/01/08 09:56:14;;;;;;;5.60;2.20;;;17.20;56.60;17.50;100397.00;;;;5049565;28;20263;-42
2022/01/08 09:58:40;;;;;;;3.20;2.13;;;17.20;56.50;17.50;100389.00;;;;5049102;28;20201;-40
2022/01/08 10:01:31;;;;;;;7.07;2.00;;;17.10;56.70;17.50;100297.00;;;;5049393;28;20187;-40
2022/01/08 10:03:58;;;;;;;5.27;2.13;;;17.10;56.70;17.50;100390.00;;;;5049128;28;20162;-40
2022/01/08 10:06:27;;;;;;;5.10;2.10;;;17.10;56.90;17.50;100378.00;;;;5049855;28;20198;-40
2022/01/08 10:08:53;;;;;;;3.20;1.93;;;17.10;57.20;17.60;100376.00;;;;5048729;28;20266;-40
2022/01/08 10:11:20;;;;;;;2.80;2.00;;;17.10;57.70;17.60;100368.00;;;;5049143;28;20237;-40
2022/01/08 10:13:47;;;;;;;3.47;1.97;;;17.10;57.90;17.60;100375.00;;;;5049035;28;20566;-40
2022/01/08 10:19:02;;;;;;;5.43;2.50;;;17.10;57.90;17.60;100367.00;;;;5048669;28;20161;-42
2022/01/08 10:21:37;;;;;;;7.40;2.57;;;17.10;58.20;17.60;100348.00;;;;5048523;28;20862;-42
2022/01/08 10:24:08;;;;;;;6.83;2.50;;;17.10;60.10;17.60;100355.00;;;;5049157;28;20192;-42
2022/01/08 10:26:43;;;;;;;19.07;3.00;;;17.10;63.20;17.60;100338.00;;;;5048700;28;20285;-41
2022/01/08 10:29:15;;;;;;;7.13;3.13;;;17.20;65.10;17.70;100351.00;;;;5048369;28;20201;-41
2022/01/08 10:31:50;;;;;;;10.07;3.13;;;17.20;69.10;17.70;100343.00;;;;5048179;28;20785;-40
2022/01/08 10:34:21;;;;;;;7.77;2.90;;;17.20;68.70;17.70;100324.00;;;;5048766;28;20160;-41
2022/01/08 10:36:54;;;;;;;7.80;2.53;;;17.30;67.10;17.70;100319.00;;;;5048705;28;20757;-41
2022/01/08 10:39:33;;;;;;;7.30;2.67;;;17.30;66.50;17.80;100316.00;;;;5048253;28;20175;-41
2022/01/08 10:42:00;;;;;;;8.73;3.13;;;17.40;65.80;17.80;100307.00;;;;5049027;28;20299;-41
2022/01/08 10:44:28;;;;;;;8.57;3.03;;;17.40;65.60;17.80;100314.00;;;;5047995;28;20186;-40
2022/01/08 10:46:59;;;;;;;11.40;2.90;;;17.40;65.40;17.90;100313.00;;;;5048509;28;20703;-40
2022/01/08 10:50:02;;;;;;;7.67;3.10;;;17.50;64.80;17.90;100308.00;;;;5048223;28;20174;-40
2022/01/08 10:52:28;;;;;;;8.00;3.20;;;17.50;65.30;17.90;100300.00;;;;5049555;28;20239;-40
2022/01/08 10:54:58;;;;;;;11.23;2.77;;;17.50;64.50;18.00;100298.00;;;;5048066;28;20840;-40
2022/01/08 10:57:35;;;;;;;6.80;2.90;;;17.50;64.10;18.00;100288.00;;;;5045196;28;20193;-39
2022/01/08 11:00:01;;;;;;;11.80;2.80;;;17.50;63.90;18.00;100281.00;;;;5040770;28;20173;-41
2022/01/08 11:02:28;;;;;;;6.13;2.70;;;17.50;63.40;18.00;100269.00;;;;5048857;28;20170;-40
2022/01/08 11:04:55;;;;;;;8.67;2.83;;;17.50;62.90;18.00;100262.00;;;;5048253;28;20718;-41
2022/01/08 11:07:29;;;;;;;6.17;2.60;;;17.50;62.70;18.00;100246.00;;;;5048448;28;20191;-42
2022/01/08 11:10:16;;;;;;;5.30;2.63;;;17.50;62.50;17.90;100235.00;;;;5048162;28;20793;-41